Аэропорт
Хабаровск (UHHH)

 UHHH / KHV
ЗЦ Хабаровск
Хабаровск (UHHH)
Хабаровск (UHHH)
 48.52800, 135.18800  / 244 ft

 UHHH 161030Z 27006MPS CAVOK M19/M29 Q1006 R23L/090060 NOSIG RMK QFE748/0998
 UHHH 151956Z 1521/1703 25010MPS 9999 SCT030 TEMPO 1521/1601 28010G15MPS TEMPO 1601/1606 2000 SN BKN012
uhhh_aip_1605
показать схемы
Название сценария Тип сценария Flight Simulator 9 Flight Simulator X Prepar3D v2 Prepar3D v3 Prepar3D v4 xPlane
uhhh-scenery-fs9-1104 бесплатный
uhhh-scenery-fs9-1406 бесплатный
uhhh-scenery-xpl-1007 бесплатный
UHHH_2017_X_P3D4 бесплатный


2018 © VATRUS division